createdAt,value
2019-01-06T00:00:11.196Z,15.60
2019-01-06T00:02:59.085Z,19.95
2019-01-06T00:05:46.833Z,17.43
2019-01-06T00:08:40.657Z,14.70
2019-01-06T00:11:28.358Z,15.60
2019-01-06T00:14:06.894Z,17.93
2019-01-06T00:16:53.501Z,17.77
2019-01-06T00:19:41.338Z,19.00
2019-01-06T00:22:27.706Z,18.60
2019-01-06T00:25:27.450Z,18.07
2019-01-06T00:28:15.142Z,20.90
2019-01-06T00:31:11.805Z,21.20
2019-01-06T00:33:58.133Z,23.37
2019-01-06T00:37:03.941Z,24.67
2019-01-06T00:39:57.634Z,26.53
2019-01-06T00:42:44.169Z,21.17
2019-01-06T00:45:40.861Z,20.33
2019-01-06T00:48:40.797Z,17.57
2019-01-06T00:51:30.913Z,20.40
2019-01-06T00:54:18.032Z,21.90
2019-01-06T00:57:11.569Z,19.07
2019-01-06T01:00:02.298Z,20.23
2019-01-06T01:02:55.779Z,19.33
2019-01-06T01:06:00.285Z,19.73
2019-01-06T01:08:59.873Z,18.20
2019-01-06T01:11:46.330Z,21.87
2019-01-06T01:14:31.068Z,19.50
2019-01-06T01:17:25.137Z,17.17
2019-01-06T01:20:12.814Z,16.90
2019-01-06T01:23:03.511Z,15.93
2019-01-06T01:25:57.017Z,19.73
2019-01-06T01:28:49.576Z,19.23
2019-01-06T01:31:36.058Z,20.33
2019-01-06T01:34:41.925Z,17.20
2019-01-06T01:37:38.781Z,13.47
2019-01-06T01:40:44.826Z,14.70
2019-01-06T01:43:27.376Z,12.97
2019-01-06T01:46:15.153Z,12.53
2019-01-06T01:49:09.173Z,13.17
2019-01-06T01:51:57.005Z,12.83
2019-01-06T01:54:53.792Z,12.70
2019-01-06T01:57:50.316Z,18.70
2019-01-06T02:00:50.141Z,13.87
2019-01-06T02:03:37.977Z,14.47
2019-01-06T02:06:30.193Z,12.57
2019-01-06T02:09:18.028Z,13.33
2019-01-06T02:12:05.714Z,15.03
2019-01-06T02:14:59.110Z,11.60
2019-01-06T02:17:45.249Z,14.10
2019-01-06T02:20:31.745Z,14.97
2019-01-06T02:23:31.492Z,14.73
2019-01-06T02:26:31.093Z,13.23
2019-01-06T02:29:18.769Z,13.70
2019-01-06T02:32:05.333Z,14.47
2019-01-06T02:34:51.601Z,14.50
2019-01-06T02:37:42.132Z,17.30
2019-01-06T02:40:28.564Z,16.33
2019-01-06T02:43:22.313Z,14.67
2019-01-06T02:46:15.705Z,11.70
2019-01-06T02:49:03.852Z,12.73
2019-01-06T02:51:54.289Z,17.43
2019-01-06T02:54:48.224Z,14.80
2019-01-06T02:57:51.195Z,16.17
2019-01-06T03:00:44.727Z,13.23
2019-01-06T03:03:31.413Z,17.10
2019-01-06T03:06:22.881Z,13.97
2019-01-06T03:09:25.809Z,15.93
2019-01-06T03:12:12.199Z,15.90
2019-01-06T03:14:58.839Z,16.80
2019-01-06T03:17:52.337Z,14.83
2019-01-06T03:20:46.157Z,16.40
2019-01-06T03:23:34.047Z,15.70
2019-01-06T03:26:20.144Z,15.80
2019-01-06T03:29:06.574Z,16.67
2019-01-06T03:32:03.118Z,14.90
2019-01-06T03:34:49.786Z,15.67
2019-01-06T03:37:46.321Z,14.10
2019-01-06T03:40:38.121Z,16.17
2019-01-06T03:43:31.912Z,16.50
2019-01-06T03:46:22.713Z,14.10
2019-01-06T03:49:12.457Z,12.83
2019-01-06T03:51:57.824Z,12.77
2019-01-06T03:54:43.812Z,13.67
2019-01-06T03:57:30.179Z,15.37
2019-01-06T04:00:32.817Z,18.07
2019-01-06T04:03:35.900Z,16.63
2019-01-06T04:06:22.224Z,17.57
2019-01-06T04:09:16.278Z,15.63
2019-01-06T04:12:02.645Z,18.97
2019-01-06T04:14:57.478Z,16.70
2019-01-06T04:17:43.637Z,17.73
2019-01-06T04:20:37.208Z,15.20
2019-01-06T04:23:36.912Z,15.40
2019-01-06T04:26:23.499Z,18.47
2019-01-06T04:29:19.993Z,16.07
2019-01-06T04:32:06.677Z,19.73
2019-01-06T04:35:00.328Z,15.10
2019-01-06T04:37:57.296Z,14.83
2019-01-06T04:40:57.026Z,15.33
2019-01-06T04:43:43.414Z,16.47
2019-01-06T04:46:29.612Z,14.07
2019-01-06T04:49:35.482Z,14.17
2019-01-06T04:52:32.038Z,16.17
2019-01-06T04:55:38.003Z,12.53
2019-01-06T04:58:41.052Z,14.28
2019-01-06T05:01:41.137Z,18.30
2019-01-06T05:04:27.540Z,18.83
2019-01-06T05:07:21.273Z,16.73
2019-01-06T05:10:07.502Z,18.73
2019-01-06T05:12:58.020Z,18.13
2019-01-06T05:15:48.624Z,19.37
2019-01-06T05:18:35.309Z,16.03
2019-01-06T05:21:23.087Z,15.53
2019-01-06T05:24:09.769Z,13.40
2019-01-06T05:26:49.363Z,13.67
2019-01-06T05:29:37.197Z,10.73
2019-01-06T05:32:30.989Z,13.60
2019-01-06T05:35:27.670Z,11.97
2019-01-06T05:38:18.121Z,11.70
2019-01-06T05:41:05.913Z,14.83
2019-01-06T05:43:54.152Z,11.17
2019-01-06T05:46:45.026Z,13.97
2019-01-06T05:49:42.141Z,11.07
2019-01-06T05:52:28.385Z,10.97
2019-01-06T05:55:21.804Z,8.80
2019-01-06T05:58:04.724Z,10.97
2019-01-06T06:01:05.926Z,12.93
2019-01-06T06:03:53.757Z,11.37
2019-01-06T06:06:39.945Z,15.27
2019-01-06T06:09:42.692Z,8.43
2019-01-06T06:12:29.028Z,8.40
2019-01-06T06:15:15.517Z,9.37
2019-01-06T06:18:18.177Z,11.17
2019-01-06T06:21:23.981Z,8.80
2019-01-06T06:24:10.338Z,10.57
2019-01-06T06:27:03.944Z,9.13
2019-01-06T06:29:51.685Z,9.90
2019-01-06T06:32:38.220Z,13.90
2019-01-06T06:35:24.273Z,10.43
2019-01-06T06:38:23.941Z,11.05
2019-01-06T06:41:07.373Z,10.17
2019-01-06T06:43:53.261Z,10.07
2019-01-06T06:46:47.648Z,13.23
2019-01-06T06:49:35.488Z,11.30
2019-01-06T06:52:26.004Z,9.73
2019-01-06T06:55:12.570Z,9.60
2019-01-06T06:58:35.240Z,9.07
2019-01-06T07:01:47.125Z,13.97
2019-01-06T07:04:40.784Z,11.83
2019-01-06T07:07:34.689Z,11.63
2019-01-06T07:10:21.098Z,11.63
2019-01-06T07:13:08.864Z,10.30
2019-01-06T07:15:57.164Z,9.53
2019-01-06T07:18:50.924Z,9.63
2019-01-06T07:21:48.481Z,9.50
2019-01-06T07:24:34.885Z,10.10
2019-01-06T07:27:22.682Z,8.90
2019-01-06T07:30:16.342Z,9.40
2019-01-06T07:33:07.041Z,12.67
2019-01-06T07:36:10.138Z,11.00
2019-01-06T07:38:56.520Z,9.27
2019-01-06T07:41:47.611Z,12.97
2019-01-06T07:44:30.198Z,10.37
2019-01-06T07:47:16.461Z,8.67
2019-01-06T07:50:10.604Z,12.70
2019-01-06T07:52:56.933Z,8.77
2019-01-06T07:55:49.960Z,7.93
2019-01-06T07:58:52.886Z,9.70
2019-01-06T08:01:32.907Z,10.50
2019-01-06T08:04:29.856Z,13.70
2019-01-06T08:07:16.258Z,7.77
2019-01-06T08:10:12.996Z,12.53
2019-01-06T08:12:59.148Z,7.70
2019-01-06T08:15:45.585Z,7.57
2019-01-06T08:18:46.944Z,9.30
2019-01-06T08:21:40.768Z,7.67
2019-01-06T08:24:40.637Z,4.60
2019-01-06T08:27:40.609Z,8.47
2019-01-06T08:30:34.020Z,8.67
2019-01-06T08:33:20.546Z,7.37
2019-01-06T08:36:06.873Z,5.03
2019-01-06T08:39:06.766Z,6.00
2019-01-06T08:42:27.445Z,7.07
2019-01-06T08:45:14.532Z,11.77
2019-01-06T08:48:14.121Z,15.40
2019-01-06T08:51:07.994Z,18.60
2019-01-06T08:53:54.305Z,14.83
2019-01-06T08:56:54.028Z,12.00
2019-01-06T08:59:53.900Z,14.00
2019-01-06T09:02:47.639Z,12.57
2019-01-06T09:05:47.265Z,9.63
2019-01-06T09:08:38.012Z,11.43
2019-01-06T09:11:32.017Z,6.80
2019-01-06T09:14:18.603Z,7.40
2019-01-06T09:17:08.453Z,10.03
2019-01-06T09:19:56.619Z,11.93
2019-01-06T09:22:44.305Z,10.57
2019-01-06T09:25:30.754Z,7.87
2019-01-06T09:28:17.184Z,8.33
2019-01-06T09:31:05.021Z,5.57
2019-01-06T09:33:56.324Z,5.73
2019-01-06T09:36:43.018Z,6.87
2019-01-06T09:39:29.076Z,7.43
2019-01-06T09:42:15.363Z,5.53
2019-01-06T09:44:56.221Z,6.37
2019-01-06T09:47:55.792Z,7.40
2019-01-06T09:50:52.270Z,11.00
2019-01-06T09:53:38.720Z,10.70
2019-01-06T09:56:24.821Z,9.53
2019-01-06T09:59:15.477Z,14.63
2019-01-06T10:02:09.541Z,12.87
2019-01-06T10:05:09.556Z,10.03
2019-01-06T10:07:59.045Z,8.57
2019-01-06T10:10:55.798Z,8.80
2019-01-06T10:13:52.821Z,8.63
2019-01-06T10:16:49.602Z,12.60
2019-01-06T10:19:36.388Z,12.60
2019-01-06T10:22:27.152Z,27.17
2019-01-06T10:25:18.153Z,34.67
2019-01-06T10:28:21.337Z,40.73
2019-01-06T10:31:15.192Z,42.30
2019-01-06T10:34:02.070Z,34.17
2019-01-06T10:36:48.377Z,36.20
2019-01-06T10:39:32.304Z,33.53
2019-01-06T10:42:38.200Z,34.10
2019-01-06T10:45:31.920Z,30.83
2019-01-06T10:48:12.520Z,19.30
2019-01-06T10:51:15.161Z,18.97
2019-01-06T10:54:02.846Z,22.70
2019-01-06T10:56:49.441Z,22.33
2019-01-06T10:59:46.008Z,27.53
2019-01-06T11:02:32.533Z,17.07
2019-01-06T11:05:26.064Z,18.25
2019-01-06T11:08:26.124Z,17.50
2019-01-06T11:11:22.851Z,14.23
2019-01-06T11:14:13.260Z,14.23
2019-01-06T11:17:07.001Z,14.80
2019-01-06T11:19:53.388Z,17.50
2019-01-06T11:22:50.510Z,11.30
2019-01-06T11:25:42.389Z,11.30
2019-01-06T11:28:30.198Z,11.80
2019-01-06T11:31:18.010Z,11.67
2019-01-06T11:34:17.968Z,15.07
2019-01-06T11:37:12.015Z,13.43
2019-01-06T11:39:58.232Z,15.33
2019-01-06T11:42:44.688Z,13.37
2019-01-06T11:45:41.782Z,15.17
2019-01-06T11:48:28.441Z,20.63
2019-01-06T11:51:18.806Z,16.97
2019-01-06T11:54:10.400Z,15.40
2019-01-06T11:57:00.757Z,15.80
2019-01-06T11:59:47.273Z,15.40
2019-01-06T12:02:28.892Z,13.90
2019-01-06T12:05:15.204Z,14.37
2019-01-06T12:07:56.473Z,16.23
2019-01-06T12:10:44.476Z,15.60
2019-01-06T12:13:45.562Z,21.73
2019-01-06T12:16:42.715Z,16.93
2019-01-06T12:19:33.909Z,14.83
2019-01-06T12:22:20.973Z,18.20
2019-01-06T12:25:07.044Z,17.93
2019-01-06T12:28:06.757Z,16.33
2019-01-06T12:30:53.253Z,26.33
2019-01-06T12:33:56.102Z,49.77
2019-01-06T12:36:55.654Z,29.00
2019-01-06T12:39:53.460Z,17.33
2019-01-06T12:42:57.331Z,26.53
2019-01-06T12:45:45.445Z,31.40
2019-01-06T12:48:51.763Z,42.10
2019-01-06T12:51:56.560Z,36.23
2019-01-06T12:54:56.765Z,38.53
2019-01-06T12:57:50.929Z,17.50
2019-01-06T13:00:37.243Z,35.17
2019-01-06T13:03:40.707Z,25.20
2019-01-06T13:06:37.434Z,18.10
2019-01-06T13:09:26.526Z,17.73
2019-01-06T13:12:13.504Z,16.60
2019-01-06T13:15:10.129Z,16.90
2019-01-06T13:18:10.132Z,13.67
2019-01-06T13:20:50.447Z,14.87
2019-01-06T13:23:32.594Z,23.60
2019-01-06T13:26:35.712Z,17.70
2019-01-06T13:29:23.692Z,16.00
2019-01-06T13:32:37.020Z,14.37
2019-01-06T13:35:31.295Z,17.93
2019-01-06T13:38:28.164Z,14.20
2019-01-06T13:41:21.683Z,19.63
2019-01-06T13:44:14.487Z,18.90
2019-01-06T13:47:02.070Z,17.27
2019-01-06T13:49:49.974Z,14.80
2019-01-06T13:52:57.587Z,18.17
2019-01-06T13:56:01.486Z,18.37
2019-01-06T13:58:50.414Z,12.33
2019-01-06T14:01:50.179Z,15.20
2019-01-06T14:04:46.118Z,14.73
2019-01-06T14:07:37.701Z,20.27
2019-01-06T14:10:25.639Z,21.40
2019-01-06T14:13:09.302Z,21.17
2019-01-06T14:15:57.172Z,21.93
2019-01-06T14:19:00.956Z,21.90
2019-01-06T14:21:57.567Z,12.27
2019-01-06T14:24:47.841Z,12.07
2019-01-06T14:27:53.370Z,23.22
2019-01-06T14:30:41.613Z,15.80
2019-01-06T14:33:29.525Z,11.43
2019-01-06T14:36:28.149Z,12.83
2019-01-06T14:39:16.066Z,10.17
2019-01-06T14:42:03.172Z,7.57
2019-01-06T14:45:09.808Z,8.33
2019-01-06T14:47:57.737Z,7.93
2019-01-06T14:50:45.401Z,10.80
2019-01-06T14:53:37.308Z,10.67
2019-01-06T14:56:24.849Z,7.83
2019-01-06T14:59:12.340Z,10.77
2019-01-06T15:02:00.573Z,14.57
2019-01-06T15:05:01.966Z,13.40
2019-01-06T15:07:44.743Z,15.10
2019-01-06T15:10:39.712Z,14.40
2019-01-06T15:13:26.409Z,15.07
2019-01-06T15:16:32.179Z,10.90
2019-01-06T15:19:23.786Z,11.27
2019-01-06T15:22:08.479Z,17.80
2019-01-06T15:25:00.705Z,20.20
2019-01-06T15:28:01.942Z,14.63
2019-01-06T15:30:55.536Z,16.17
2019-01-06T15:33:43.245Z,13.67
2019-01-06T15:36:38.181Z,22.17
2019-01-06T15:39:33.013Z,31.27
2019-01-06T15:42:19.713Z,48.67
2019-01-06T15:45:22.591Z,43.70
2019-01-06T15:48:28.833Z,42.70
2019-01-06T15:51:15.911Z,46.53
2019-01-06T15:54:02.311Z,46.30
2019-01-06T15:57:02.100Z,43.40
2019-01-06T15:59:53.757Z,42.77
2019-01-06T16:02:47.473Z,45.93
2019-01-06T16:05:34.028Z,51.93
2019-01-06T16:08:21.820Z,53.23
2019-01-06T16:11:16.161Z,59.17
2019-01-06T16:14:04.515Z,56.13
2019-01-06T16:16:58.126Z,59.85
2019-01-06T16:19:44.342Z,55.13
2019-01-06T16:22:47.154Z,58.57
2019-01-06T16:25:35.021Z,62.83
2019-01-06T16:28:39.228Z,89.13
2019-01-06T16:31:29.278Z,66.37
2019-01-06T16:34:26.088Z,63.83
2019-01-06T16:37:12.593Z,66.10
2019-01-06T16:39:58.925Z,62.67
2019-01-06T16:42:46.023Z,72.17
2019-01-06T16:45:51.858Z,68.27
2019-01-06T16:48:42.548Z,73.17
2019-01-06T16:51:32.790Z,78.17
2019-01-06T16:54:19.780Z,73.43
2019-01-06T16:57:10.361Z,77.20
2019-01-06T17:00:07.305Z,83.90
2019-01-06T17:03:01.912Z,78.70
2019-01-06T17:05:48.273Z,65.07
2019-01-06T17:08:47.029Z,68.37
2019-01-06T17:11:52.917Z,66.17
2019-01-06T17:14:34.284Z,70.13
2019-01-06T17:17:20.876Z,74.72
2019-01-06T17:20:14.952Z,69.10
2019-01-06T17:23:02.654Z,58.40
2019-01-06T17:25:56.678Z,55.50
2019-01-06T17:28:50.321Z,57.57
2019-01-06T17:31:36.821Z,51.83
2019-01-06T17:34:22.942Z,55.70
2019-01-06T17:37:25.684Z,73.57
2019-01-06T17:40:12.041Z,71.50
2019-01-06T17:42:57.685Z,70.50
2019-01-06T17:45:53.597Z,77.00
2019-01-06T17:49:00.333Z,83.60
2019-01-06T17:51:53.897Z,75.73
2019-01-06T17:54:53.856Z,60.53
2019-01-06T17:57:40.285Z,53.03
2019-01-06T18:00:28.064Z,51.43
2019-01-06T18:03:08.497Z,67.43
2019-01-06T18:05:55.016Z,66.10
2019-01-06T18:08:51.710Z,67.30
2019-01-06T18:11:45.521Z,68.97
2019-01-06T18:14:36.940Z,66.50
2019-01-06T18:17:24.925Z,65.12
2019-01-06T18:20:27.839Z,71.20
2019-01-06T18:23:15.725Z,75.73
2019-01-06T18:26:15.786Z,68.27
2019-01-06T18:29:07.159Z,68.03
2019-01-06T18:31:53.789Z,69.80
2019-01-06T18:34:47.328Z,63.43
2019-01-06T18:37:34.044Z,50.80
2019-01-06T18:40:34.121Z,52.43
2019-01-06T18:43:19.734Z,46.73
2019-01-06T18:46:07.422Z,46.23
2019-01-06T18:48:58.220Z,48.27
2019-01-06T18:51:54.581Z,60.93
2019-01-06T18:54:40.849Z,47.90
2019-01-06T18:57:40.316Z,52.40
2019-01-06T19:00:27.971Z,49.33
2019-01-06T19:03:15.746Z,41.23
2019-01-06T19:06:09.673Z,43.33
2019-01-06T19:09:15.377Z,44.33
2019-01-06T19:12:01.718Z,50.73
2019-01-06T19:14:44.865Z,59.80
2019-01-06T19:17:31.417Z,63.67
2019-01-06T19:20:32.610Z,64.90
2019-01-06T19:23:18.101Z,60.27
2019-01-06T19:26:04.925Z,67.47
2019-01-06T19:28:51.205Z,101.27
2019-01-06T19:31:38.970Z,94.50
2019-01-06T19:34:36.149Z,85.70
2019-01-06T19:37:31.873Z,74.53
2019-01-06T19:40:28.865Z,66.63
2019-01-06T19:43:25.456Z,59.93
2019-01-06T19:46:25.361Z,57.70
2019-01-06T19:49:22.811Z,42.20
2019-01-06T19:52:28.934Z,50.43
2019-01-06T19:55:13.056Z,43.83
2019-01-06T19:58:10.146Z,40.87
2019-01-06T20:01:01.096Z,35.53
2019-01-06T20:03:42.649Z,36.33
2019-01-06T20:06:25.304Z,43.13
2019-01-06T20:09:28.481Z,37.17
2019-01-06T20:12:17.427Z,39.90
2019-01-06T20:15:03.917Z,36.93
2019-01-06T20:17:50.837Z,41.15
2019-01-06T20:20:38.545Z,37.40
2019-01-06T20:23:20.380Z,36.33
2019-01-06T20:26:14.182Z,31.10
2019-01-06T20:29:00.513Z,33.27
2019-01-06T20:31:46.897Z,36.47
2019-01-06T20:34:40.537Z,38.47
2019-01-06T20:37:32.480Z,39.83
2019-01-06T20:40:32.391Z,33.23
2019-01-06T20:43:18.669Z,39.33
2019-01-06T20:46:12.230Z,39.27
2019-01-06T20:48:59.681Z,41.53
2019-01-06T20:51:50.158Z,45.70
2019-01-06T20:54:40.801Z,45.87
2019-01-06T20:57:40.813Z,61.48
2019-01-06T21:00:40.714Z,52.83
2019-01-06T21:03:34.614Z,33.90
2019-01-06T21:06:34.389Z,38.20
2019-01-06T21:09:27.897Z,35.90
2019-01-06T21:12:14.398Z,32.93
2019-01-06T21:15:00.944Z,30.60
2019-01-06T21:17:45.965Z,35.43
2019-01-06T21:20:42.726Z,34.50
2019-01-06T21:23:28.658Z,35.80
2019-01-06T21:26:22.175Z,34.00
2019-01-06T21:29:12.789Z,28.67
2019-01-06T21:32:09.488Z,26.87
2019-01-06T21:34:55.789Z,23.00
2019-01-06T21:37:58.548Z,28.53
2019-01-06T21:40:49.158Z,22.33
2019-01-06T21:43:37.029Z,18.03
2019-01-06T21:46:30.781Z,22.07
2019-01-06T21:49:17.124Z,23.27
2019-01-06T21:52:05.627Z,27.37
2019-01-06T21:54:56.256Z,26.60
2019-01-06T21:57:49.980Z,23.50
2019-01-06T22:00:36.131Z,26.10
2019-01-06T22:03:20.665Z,33.90
2019-01-06T22:06:23.302Z,26.20
2019-01-06T22:09:29.335Z,29.23
2019-01-06T22:12:22.829Z,24.10
2019-01-06T22:15:16.640Z,27.63
2019-01-06T22:18:03.040Z,23.40
2019-01-06T22:20:51.011Z,23.53
2019-01-06T22:23:54.219Z,23.30
2019-01-06T22:26:53.988Z,25.27
2019-01-06T22:29:40.618Z,32.80
2019-01-06T22:32:34.164Z,29.07
2019-01-06T22:35:31.325Z,24.20
2019-01-06T22:38:17.669Z,26.83
2019-01-06T22:41:02.280Z,26.33
2019-01-06T22:43:54.965Z,26.50
2019-01-06T22:46:42.915Z,31.83
2019-01-06T22:49:27.400Z,31.33
2019-01-06T22:52:13.781Z,29.97
2019-01-06T22:55:00.253Z,38.15
2019-01-06T22:57:59.825Z,30.00
2019-01-06T23:01:02.204Z,34.40
2019-01-06T23:03:43.288Z,22.93
2019-01-06T23:06:28.375Z,25.33
2019-01-06T23:09:14.764Z,25.03
2019-01-06T23:12:07.012Z,28.33
2019-01-06T23:14:54.788Z,24.23
2019-01-06T23:17:57.644Z,23.63
2019-01-06T23:20:48.017Z,24.80
2019-01-06T23:23:41.696Z,21.57
2019-01-06T23:26:29.534Z,21.80
2019-01-06T23:29:15.660Z,25.33
2019-01-06T23:32:18.470Z,25.50
2019-01-06T23:35:04.613Z,26.50
2019-01-06T23:38:07.517Z,28.17
2019-01-06T23:40:55.201Z,28.20
2019-01-06T23:43:41.782Z,31.77
2019-01-06T23:46:20.046Z,31.27
2019-01-06T23:49:06.653Z,30.30
2019-01-06T23:51:54.338Z,26.30
2019-01-06T23:54:44.351Z,24.17
2019-01-06T23:57:38.727Z,23.40
